createdAt,value
2018-06-04T04:01:27.891Z,14.17
2018-06-04T04:03:54.953Z,14.83
2018-06-04T04:06:22.056Z,15.13
2018-06-04T04:08:49.107Z,15.20
2018-06-04T04:11:16.137Z,14.60
2018-06-04T04:13:43.852Z,15.33
2018-06-04T04:16:10.916Z,14.80
2018-06-04T04:18:38.546Z,14.27
2018-06-04T04:21:06.997Z,14.53
2018-06-04T04:23:34.062Z,15.13
2018-06-04T04:26:01.126Z,14.90
2018-06-04T04:28:28.191Z,14.40
2018-06-04T04:30:55.280Z,14.47
2018-06-04T04:33:23.380Z,15.40
2018-06-04T04:35:50.423Z,13.57
2018-06-04T04:38:17.537Z,14.63
2018-06-04T04:40:44.619Z,14.30
2018-06-04T04:43:11.724Z,13.90
2018-06-04T04:45:40.427Z,14.23
2018-06-04T04:48:07.505Z,14.90
2018-06-04T04:50:34.585Z,13.93
2018-06-04T04:53:02.303Z,14.13
2018-06-04T04:55:29.376Z,14.40
2018-06-04T04:57:56.490Z,13.00
2018-06-04T05:00:23.611Z,14.97
2018-06-04T05:02:50.690Z,13.50
2018-06-04T05:05:17.740Z,13.50
2018-06-04T05:07:44.801Z,13.33
2018-06-04T05:10:11.860Z,14.40
2018-06-04T05:12:38.964Z,13.60
2018-06-04T05:15:06.040Z,12.33
2018-06-04T05:17:33.166Z,14.53
2018-06-04T05:20:00.291Z,13.80
2018-06-04T05:22:27.401Z,14.07
2018-06-04T05:24:54.478Z,13.00
2018-06-04T05:27:22.275Z,12.40
2018-06-04T05:29:49.393Z,14.13
2018-06-04T05:32:16.494Z,13.47
2018-06-04T05:34:44.229Z,13.90
2018-06-04T05:37:11.337Z,13.77
2018-06-04T05:39:38.375Z,13.03
2018-06-04T05:42:05.482Z,13.60
2018-06-04T05:44:32.551Z,14.07
2018-06-04T05:46:59.654Z,14.83
2018-06-04T05:49:27.430Z,13.20
2018-06-04T05:51:54.491Z,13.73
2018-06-04T05:54:21.578Z,14.40
2018-06-04T05:56:48.674Z,12.73
2018-06-04T05:59:15.775Z,13.77
2018-06-04T06:01:42.855Z,13.33
2018-06-04T06:04:09.955Z,13.33
2018-06-04T06:06:37.052Z,12.87
2018-06-04T06:09:08.263Z,12.70
2018-06-04T06:11:35.335Z,13.27
2018-06-04T06:14:02.416Z,14.03
2018-06-04T06:16:29.512Z,12.00
2018-06-04T06:18:58.287Z,13.27
2018-06-04T06:21:25.379Z,12.73
2018-06-04T06:23:52.466Z,13.60
2018-06-04T06:26:19.543Z,12.30
2018-06-04T06:28:46.607Z,11.90
2018-06-04T06:31:13.718Z,11.73
2018-06-04T06:33:40.808Z,12.03
2018-06-04T06:36:07.930Z,12.73
2018-06-04T06:38:37.425Z,13.10
2018-06-04T06:41:06.417Z,12.17
2018-06-04T06:43:33.484Z,11.60
2018-06-04T06:46:01.111Z,11.70
2018-06-04T06:48:28.203Z,12.70
2018-06-04T06:50:55.274Z,11.83
2018-06-04T06:53:22.361Z,11.90
2018-06-04T06:55:49.468Z,12.40
2018-06-04T06:58:16.563Z,11.20
2018-06-04T07:00:43.654Z,11.13
2018-06-04T07:03:10.831Z,12.20
2018-06-04T07:05:38.561Z,11.27
2018-06-04T07:08:05.634Z,11.57
2018-06-04T07:10:32.720Z,10.80
2018-06-04T07:12:59.807Z,10.40
2018-06-04T07:15:26.886Z,10.30
2018-06-04T07:17:54.005Z,9.97
2018-06-04T07:20:21.066Z,10.80
2018-06-04T07:22:48.248Z,10.40
2018-06-04T07:25:15.318Z,10.47
2018-06-04T07:27:42.396Z,10.43
2018-06-04T07:30:09.624Z,11.60
2018-06-04T07:32:36.713Z,12.10
2018-06-04T07:35:03.770Z,12.00
2018-06-04T07:37:30.891Z,10.40
2018-06-04T07:39:58.738Z,10.20
2018-06-04T07:42:25.831Z,10.20
2018-06-04T07:44:52.892Z,10.00
2018-06-04T07:47:19.965Z,10.07
2018-06-04T07:49:48.125Z,10.20
2018-06-04T07:52:16.005Z,9.50
2018-06-04T07:54:43.071Z,10.43
2018-06-04T07:57:10.151Z,10.47
2018-06-04T07:59:37.254Z,9.93
2018-06-04T08:02:04.371Z,10.10
2018-06-04T08:04:31.468Z,9.70
2018-06-04T08:06:58.668Z,9.80
2018-06-04T08:09:25.886Z,10.63
2018-06-04T08:11:52.945Z,9.70
2018-06-04T08:14:20.006Z,10.87
2018-06-04T08:16:47.136Z,10.30
2018-06-04T08:19:14.780Z,10.70
2018-06-04T08:21:41.863Z,10.53
2018-06-04T08:24:09.008Z,10.20
2018-06-04T08:26:37.014Z,10.63
2018-06-04T08:29:04.807Z,10.40
2018-06-04T08:31:32.092Z,10.10
2018-06-04T08:33:59.199Z,10.60
2018-06-04T08:36:27.214Z,10.33
2018-06-04T08:38:54.314Z,10.57
2018-06-04T08:41:21.686Z,10.53
2018-06-04T08:43:49.520Z,10.10
2018-06-04T08:46:16.660Z,10.70
2018-06-04T08:48:43.723Z,12.13
2018-06-04T08:51:10.788Z,10.37
2018-06-04T08:53:37.870Z,10.00
2018-06-04T08:56:05.083Z,11.20
2018-06-04T08:58:32.143Z,10.93
2018-06-04T09:01:00.150Z,9.67
2018-06-04T09:03:27.274Z,9.83
2018-06-04T09:05:54.538Z,10.17
2018-06-04T09:08:21.635Z,9.53
2018-06-04T09:10:48.721Z,9.77
2018-06-04T09:13:15.867Z,9.27
2018-06-04T09:15:43.041Z,9.57
2018-06-04T09:18:10.097Z,9.60
2018-06-04T09:20:37.232Z,10.13
2018-06-04T09:23:04.335Z,10.10
2018-06-04T09:25:31.429Z,9.93
2018-06-04T09:27:58.539Z,10.57
2018-06-04T09:30:26.646Z,10.33
2018-06-04T09:32:55.852Z,10.20
2018-06-04T09:35:22.942Z,9.67
2018-06-04T09:37:50.050Z,10.80
2018-06-04T09:40:18.525Z,10.37
2018-06-04T09:42:45.596Z,9.90
2018-06-04T09:45:12.897Z,9.83
2018-06-04T09:47:40.432Z,9.40
2018-06-04T09:50:07.592Z,8.80
2018-06-04T09:52:34.729Z,9.53
2018-06-04T09:55:01.908Z,8.73
2018-06-04T09:57:29.625Z,8.63
2018-06-04T09:59:56.799Z,8.27
2018-06-04T10:02:24.594Z,8.93
2018-06-04T10:04:51.694Z,7.63
2018-06-04T10:07:18.807Z,7.17
2018-06-04T10:09:46.101Z,7.97
2018-06-04T10:12:14.193Z,7.50
2018-06-04T10:14:41.300Z,7.03
2018-06-04T10:17:08.563Z,7.00
2018-06-04T10:19:35.688Z,7.70
2018-06-04T10:22:03.298Z,7.50
2018-06-04T10:24:30.411Z,6.37
2018-06-04T10:26:57.501Z,6.70
2018-06-04T10:29:24.640Z,7.00
2018-06-04T10:31:52.555Z,7.40
2018-06-04T10:34:20.489Z,7.10
2018-06-04T10:36:47.600Z,6.67
2018-06-04T10:39:15.029Z,7.20
2018-06-04T10:41:42.143Z,6.63
2018-06-04T10:44:09.753Z,6.70
2018-06-04T10:46:37.174Z,6.50
2018-06-04T10:49:05.300Z,6.50
2018-06-04T10:51:32.374Z,6.50
2018-06-04T10:54:00.174Z,5.70
2018-06-04T10:56:28.308Z,7.47
2018-06-04T10:58:55.728Z,6.77
2018-06-04T11:01:24.290Z,5.80
2018-06-04T11:03:51.417Z,6.43
2018-06-04T11:06:19.294Z,6.00
2018-06-04T11:08:47.110Z,5.90
2018-06-04T11:11:14.867Z,6.10
2018-06-04T11:13:42.930Z,6.10
2018-06-04T11:16:10.452Z,5.27
2018-06-04T11:18:37.588Z,5.17
2018-06-04T11:21:04.679Z,5.50
2018-06-04T11:23:32.088Z,4.67
2018-06-04T11:25:59.609Z,4.67
2018-06-04T11:28:26.691Z,5.23
2018-06-04T11:30:53.780Z,4.10
2018-06-04T11:33:20.923Z,5.10
2018-06-04T11:35:48.080Z,4.30
2018-06-04T11:38:15.737Z,4.50
2018-06-04T11:40:42.924Z,4.90
2018-06-04T11:43:10.017Z,4.60
2018-06-04T11:45:37.712Z,4.20
2018-06-04T11:48:04.818Z,5.20
2018-06-04T11:50:31.884Z,4.00
2018-06-04T11:52:58.956Z,4.23
2018-06-04T11:55:26.001Z,4.77
2018-06-04T11:57:53.111Z,4.00
2018-06-04T12:00:20.166Z,3.93
2018-06-04T12:02:47.487Z,4.10
2018-06-04T12:05:14.771Z,4.47
2018-06-04T12:07:41.846Z,4.20
2018-06-04T12:10:08.927Z,4.07
2018-06-04T12:12:36.047Z,3.87
2018-06-04T12:15:03.138Z,3.30
2018-06-04T12:17:30.267Z,3.90
2018-06-04T12:19:57.344Z,4.20
2018-06-04T12:22:25.096Z,4.57
2018-06-04T12:24:52.175Z,4.50
2018-06-04T12:27:19.304Z,4.80
2018-06-04T12:29:46.612Z,4.43
2018-06-04T12:32:13.726Z,3.97
2018-06-04T12:34:40.821Z,4.40
2018-06-04T12:37:07.937Z,4.60
2018-06-04T12:39:35.279Z,4.50
2018-06-04T12:42:03.078Z,4.37
2018-06-04T12:44:30.245Z,4.10
2018-06-04T12:46:58.217Z,3.83
2018-06-04T12:49:25.451Z,4.17
2018-06-04T12:51:52.621Z,3.43
2018-06-04T12:54:19.793Z,4.13
2018-06-04T12:56:46.942Z,3.47
2018-06-04T12:59:15.050Z,3.90
2018-06-04T13:01:45.167Z,4.20
2018-06-04T13:04:12.276Z,3.80
2018-06-04T13:06:40.235Z,3.90
2018-06-04T13:09:07.611Z,3.57
2018-06-04T13:11:34.777Z,3.57
2018-06-04T13:14:08.023Z,3.62
2018-06-04T13:16:35.157Z,4.37
2018-06-04T13:19:02.328Z,3.30
2018-06-04T13:21:29.451Z,3.30
2018-06-04T13:23:57.199Z,2.87
2018-06-04T13:26:24.289Z,3.40
2018-06-04T13:28:53.808Z,4.10
2018-06-04T13:31:22.458Z,3.37
2018-06-04T13:33:51.651Z,3.83
2018-06-04T13:36:18.790Z,3.60
2018-06-04T13:38:46.725Z,3.60
2018-06-04T13:41:14.017Z,3.43
2018-06-04T13:43:41.190Z,3.63
2018-06-04T13:46:09.538Z,3.93
2018-06-04T13:48:40.639Z,4.03
2018-06-04T13:51:09.788Z,4.00
2018-06-04T13:53:44.624Z,3.90
2018-06-04T13:56:11.784Z,4.20
2018-06-04T13:58:38.972Z,4.30
2018-06-04T14:01:06.141Z,4.00
2018-06-04T14:03:34.326Z,4.17
2018-06-04T14:06:01.453Z,4.53
2018-06-04T14:08:28.542Z,4.00
2018-06-04T14:10:55.699Z,3.90
2018-06-04T14:13:22.808Z,4.10
2018-06-04T14:15:49.969Z,4.17
2018-06-04T14:18:17.060Z,4.43
2018-06-04T14:20:44.404Z,4.50
2018-06-04T14:23:11.519Z,4.30
2018-06-04T14:25:40.287Z,4.43
2018-06-04T14:28:07.940Z,4.47
2018-06-04T14:30:35.766Z,4.83
2018-06-04T14:33:03.573Z,4.57
2018-06-04T14:35:31.041Z,4.43
2018-06-04T14:37:58.195Z,4.53
2018-06-04T14:40:25.327Z,4.17
2018-06-04T14:42:55.170Z,5.10
2018-06-04T14:45:30.972Z,4.20
2018-06-04T14:48:05.457Z,4.10
2018-06-04T14:50:37.936Z,4.60
2018-06-04T14:53:05.417Z,3.80
2018-06-04T14:55:33.271Z,4.43
2018-06-04T14:58:01.216Z,5.07
2018-06-04T15:00:29.221Z,4.57
2018-06-04T15:02:56.361Z,5.00
2018-06-04T15:05:23.466Z,4.47
2018-06-04T15:07:51.388Z,4.30
2018-06-04T15:10:18.521Z,4.90
2018-06-04T15:12:46.408Z,5.17
2018-06-04T15:15:14.322Z,4.50
2018-06-04T15:17:41.617Z,4.70
2018-06-04T15:20:08.762Z,4.73
2018-06-04T15:22:36.054Z,4.57
2018-06-04T15:25:04.855Z,5.10
2018-06-04T15:27:31.965Z,4.87
2018-06-04T15:30:00.809Z,4.40
2018-06-04T15:32:28.710Z,5.07
2018-06-04T15:34:56.508Z,5.13
2018-06-04T15:37:24.877Z,5.30
2018-06-04T15:39:53.697Z,4.90
2018-06-04T15:42:22.020Z,6.37
2018-06-04T15:44:49.466Z,6.10
2018-06-04T15:47:16.577Z,5.57
2018-06-04T15:49:43.852Z,4.80
2018-06-04T15:52:15.241Z,6.70
2018-06-04T15:54:43.593Z,6.30
2018-06-04T15:57:13.155Z,6.60
2018-06-04T15:59:43.775Z,7.80
2018-06-04T16:02:13.958Z,6.60
2018-06-04T16:04:43.449Z,5.27
2018-06-04T16:07:12.990Z,5.97
2018-06-04T16:09:43.536Z,5.60
2018-06-04T16:12:12.692Z,6.40
2018-06-04T16:14:41.707Z,5.30
2018-06-04T16:17:11.585Z,5.43
2018-06-04T16:19:38.682Z,6.07
2018-06-04T16:22:05.812Z,5.23
2018-06-04T16:24:32.888Z,5.10
2018-06-04T16:27:02.233Z,5.40
2018-06-04T16:29:31.267Z,5.43
2018-06-04T16:31:59.805Z,6.47
2018-06-04T16:34:27.003Z,5.30
2018-06-04T16:36:54.204Z,6.13
2018-06-04T16:39:21.313Z,5.63
2018-06-04T16:41:48.428Z,5.47
2018-06-04T16:44:16.950Z,5.63
2018-06-04T16:46:44.075Z,5.73
2018-06-04T16:49:11.882Z,5.30
2018-06-04T16:51:38.990Z,6.20
2018-06-04T16:54:06.100Z,6.00
2018-06-04T16:56:33.237Z,5.80
2018-06-04T16:59:00.332Z,5.60
2018-06-04T17:01:27.406Z,5.17
2018-06-04T17:03:54.516Z,5.77
2018-06-04T17:06:22.752Z,6.13
2018-06-04T17:08:49.857Z,5.27
2018-06-04T17:11:16.962Z,6.20
2018-06-04T17:13:44.081Z,6.43
2018-06-04T17:16:12.827Z,6.10
2018-06-04T17:18:40.692Z,5.70
2018-06-04T17:21:07.751Z,5.97
2018-06-04T17:23:35.935Z,6.60
2018-06-04T17:26:03.061Z,5.93
2018-06-04T17:28:30.200Z,6.60
2018-06-04T17:30:59.026Z,6.00
2018-06-04T17:33:26.738Z,5.80
2018-06-04T17:35:53.857Z,5.97
2018-06-04T17:38:22.255Z,6.50
2018-06-04T17:40:51.072Z,5.90
2018-06-04T17:43:18.885Z,5.97
2018-06-04T17:45:46.043Z,6.17
2018-06-04T17:48:13.733Z,5.87
2018-06-04T17:50:40.895Z,6.60
2018-06-04T17:53:08.013Z,6.70
2018-06-04T17:55:35.094Z,6.07
2018-06-04T17:58:02.208Z,6.10
2018-06-04T18:00:30.322Z,6.00
2018-06-04T18:02:57.977Z,6.47
2018-06-04T18:05:25.057Z,6.27
2018-06-04T18:07:52.115Z,6.17
2018-06-04T18:10:19.915Z,6.80
2018-06-04T18:12:47.010Z,6.70
2018-06-04T18:15:14.123Z,5.90
2018-06-04T18:17:41.786Z,6.40
2018-06-04T18:20:09.045Z,6.73
2018-06-04T18:22:36.128Z,6.47
2018-06-04T18:25:05.174Z,6.70
2018-06-04T18:27:33.052Z,6.53
2018-06-04T18:30:00.762Z,6.77
2018-06-04T18:32:27.883Z,7.57
2018-06-04T18:34:55.889Z,7.27
2018-06-04T18:37:24.485Z,6.33
2018-06-04T18:39:52.181Z,7.27
2018-06-04T18:42:19.292Z,7.30
2018-06-04T18:44:46.389Z,6.40
2018-06-04T18:47:14.895Z,6.97
2018-06-04T18:49:41.997Z,6.67
2018-06-04T18:52:09.281Z,7.30
2018-06-04T18:54:36.496Z,7.57
2018-06-04T18:57:03.627Z,7.60
2018-06-04T18:59:31.758Z,7.33
2018-06-04T19:01:58.894Z,7.20
2018-06-04T19:04:27.189Z,8.10
2018-06-04T19:06:54.273Z,7.63
2018-06-04T19:09:22.614Z,7.77
2018-06-04T19:11:49.664Z,7.07
2018-06-04T19:14:16.790Z,7.30
2018-06-04T19:16:45.640Z,7.53
2018-06-04T19:19:12.742Z,7.50
2018-06-04T19:21:40.781Z,7.80
2018-06-04T19:24:07.896Z,7.93
2018-06-04T19:26:35.898Z,7.10
2018-06-04T19:29:03.028Z,7.47
2018-06-04T19:31:30.194Z,8.27
2018-06-04T19:33:57.316Z,8.33
2018-06-04T19:36:25.024Z,8.13
2018-06-04T19:38:52.157Z,7.90
2018-06-04T19:41:19.283Z,7.63
2018-06-04T19:43:46.394Z,7.80
2018-06-04T19:46:13.522Z,7.90
2018-06-04T19:48:40.677Z,8.40
2018-06-04T19:51:08.325Z,7.67
2018-06-04T19:53:36.391Z,7.80
2018-06-04T19:56:03.495Z,6.97
2018-06-04T19:58:31.334Z,7.30
2018-06-04T20:00:58.604Z,6.53
2018-06-04T20:03:25.714Z,6.53
2018-06-04T20:05:52.820Z,7.53
2018-06-04T20:08:19.922Z,7.77
2018-06-04T20:10:47.015Z,7.40
2018-06-04T20:13:15.717Z,7.70
2018-06-04T20:15:42.816Z,7.50
2018-06-04T20:18:10.414Z,8.03
2018-06-04T20:20:37.529Z,8.10
2018-06-04T20:23:04.619Z,7.90
2018-06-04T20:25:31.740Z,7.53
2018-06-04T20:27:58.826Z,6.87
2018-06-04T20:30:26.613Z,7.17
2018-06-04T20:32:54.222Z,8.20
2018-06-04T20:35:21.933Z,7.73
2018-06-04T20:37:49.122Z,7.83
2018-06-04T20:40:16.823Z,7.10
2018-06-04T20:42:43.991Z,7.90
2018-06-04T20:45:11.150Z,7.60
2018-06-04T20:47:38.791Z,7.40
2018-06-04T20:50:07.911Z,7.93
2018-06-04T20:52:35.132Z,7.30
2018-06-04T20:55:02.789Z,7.30
2018-06-04T20:57:30.178Z,7.90
2018-06-04T20:59:57.963Z,8.33
2018-06-04T21:02:25.091Z,7.70
2018-06-04T21:04:53.224Z,8.30
2018-06-04T21:07:20.302Z,7.10
2018-06-04T21:09:48.672Z,8.57
2018-06-04T21:12:15.932Z,7.90
2018-06-04T21:14:44.036Z,7.30
2018-06-04T21:17:12.404Z,7.50
2018-06-04T21:19:39.536Z,8.53
2018-06-04T21:22:07.849Z,8.60
2018-06-04T21:24:34.998Z,8.27
2018-06-04T21:27:02.941Z,8.80
2018-06-04T21:29:30.141Z,7.87
2018-06-04T21:31:57.645Z,8.60
2018-06-04T21:34:24.789Z,8.50
2018-06-04T21:36:51.929Z,7.77
2018-06-04T21:39:19.069Z,7.43
2018-06-04T21:41:46.176Z,7.70
2018-06-04T21:44:13.286Z,8.50
2018-06-04T21:46:41.806Z,7.57
2018-06-04T21:49:15.102Z,8.10
2018-06-04T21:51:42.228Z,7.77
2018-06-04T21:54:09.328Z,8.50
2018-06-04T21:56:36.473Z,8.40
2018-06-04T21:59:04.892Z,7.50
2018-06-04T22:01:31.985Z,7.77
2018-06-04T22:04:00.501Z,8.33
2018-06-04T22:06:29.868Z,8.93
2018-06-04T22:08:58.902Z,8.10
2018-06-04T22:11:27.101Z,8.20
2018-06-04T22:13:56.100Z,8.40
2018-06-04T22:16:26.470Z,8.13
2018-06-04T22:18:56.203Z,8.10
2018-06-04T22:21:25.083Z,8.70
2018-06-04T22:23:54.046Z,7.63
2018-06-04T22:26:23.158Z,8.80
2018-06-04T22:28:51.207Z,8.10
2018-06-04T22:31:19.000Z,8.27
2018-06-04T22:33:46.754Z,8.53
2018-06-04T22:36:13.876Z,8.60
2018-06-04T22:38:41.700Z,8.57
2018-06-04T22:41:08.782Z,8.77
2018-06-04T22:43:36.736Z,8.83
2018-06-04T22:46:04.793Z,9.20
2018-06-04T22:48:31.923Z,8.90
2018-06-04T22:50:59.068Z,8.63
2018-06-04T22:53:27.173Z,9.00
2018-06-04T22:55:54.874Z,9.50
2018-06-04T22:58:21.975Z,8.90
2018-06-04T23:00:49.772Z,9.27
2018-06-04T23:03:16.880Z,8.80
2018-06-04T23:05:44.758Z,9.10
2018-06-04T23:08:12.584Z,9.03
2018-06-04T23:10:40.581Z,9.67
2018-06-04T23:13:07.689Z,9.67
2018-06-04T23:15:34.777Z,10.30
2018-06-04T23:18:03.038Z,9.70
2018-06-04T23:20:30.129Z,9.07
2018-06-04T23:22:57.219Z,9.83
2018-06-04T23:25:24.894Z,9.27
2018-06-04T23:27:52.009Z,9.60
2018-06-04T23:30:20.001Z,10.00
2018-06-04T23:32:48.003Z,9.37
2018-06-04T23:35:16.939Z,10.40
2018-06-04T23:37:45.091Z,10.03
2018-06-04T23:40:12.933Z,10.27
2018-06-04T23:42:40.862Z,10.27
2018-06-04T23:45:08.604Z,10.20
2018-06-04T23:47:36.749Z,11.37
2018-06-04T23:50:05.129Z,10.50
2018-06-04T23:52:32.228Z,10.27
2018-06-04T23:54:59.333Z,10.10
2018-06-04T23:57:26.448Z,10.43
2018-06-04T23:59:53.472Z,9.90
